Mikonos, Greece

7:07 AM EEST on October 01, 2014 (GMT +0300)
Mikonos | Change Station
CLOSE
Current Station
Airport
Location: Mikonos,
Elevation: 404 ft
Nearby Weather Stations

Elev 404 ft 37.44 °N, 25.35 °E | Updated 17 minutes ago

Clear
Clear
64 °F
Feels Like 64 °F
N
22
Wind Variable Wind from North

Today
High -- | Low -- °F
--% Chance of Precip.
Yesterday
High -- | Low -- °F
Precip. -- in
7:13 AM 7:02 PM
Waxing Crescent, 43% visible
Pressure 30.09 in
Visibility -9999.0 miles
Clouds
Dew Point 55 °F
Humidity 73%
Rainfall 0.00 in
Snow Depth Not available.
UV Not available.
Pollen Not available.
Air Quality Not available.
Flu Activity Not available.
METAR LGMK 010350Z 36019KT CAVOK 18/13 Q1019

More Conditions Fewer Conditions

Pressure 30.09 in
Visibility -9999.0 miles
Clouds
Dew Point 55 °F
Humidity 73%
Rainfall 0.00 in
Snow Depth Not available.
UV Not available.
Pollen Not available.
Air Quality Not available.
Flu Activity Not available.
METAR LGMK 010350Z 36019KT CAVOK 18/13 Q1019

More Conditions Fewer Conditions

10-Day Weather Forecast

Almanac

Astronomy

Oct. 01, 2014 Rise Set
Actual Time 7:13 AM EEST 7:02 PM EEST
Civil Twilight 6:47 AM EEST 7:28 PM EEST
Nautical Twilight 6:17 AM EEST 7:58 PM EEST
Astronomical Twilight 5:46 AM EEST 8:28 PM EEST
Moon 1:52 PM EEST No Moon Set
Length of Visible Light 12h 40m
Length of Day
11h 48m
Tomorrow will be 2m 23s shorter.
Waxing Crescent, 43% of the Moon is Illuminated
Today
Waxing Crescent
Oct 1
First Quarter
Oct 8
Full
Oct 15
Last Quarter
Oct 23
New

Yesterday's Extremes

Country Highs Country Lows

Community

WunderPhotos

Upload Photos

1,757,840 photos uploaded!

Nearby

Snow Depth

Not available.

Earthquake Activity

City Distance Mag. Time & Date
No recent earthquake activity has been reported nearby.
Minimum magnitude displayed is 2.5.

Coastal Water Temperatures

Place Temperature
No Stations Reporting

Nearby Weather Stations